createdAt,value
2023-04-09T00:03:59.604Z,13.80
2023-04-09T00:08:04.268Z,10.97
2023-04-09T00:12:07.784Z,16.07
2023-04-09T00:16:11.330Z,14.63
2023-04-09T00:20:16.322Z,11.97
2023-04-09T00:24:19.837Z,12.50
2023-04-09T00:28:48.820Z,18.10
2023-04-09T00:32:54.604Z,13.47
2023-04-09T00:36:59.478Z,15.97
2023-04-09T00:41:03.750Z,15.97
2023-04-09T00:45:08.801Z,14.20
2023-04-09T00:49:12.343Z,14.63
2023-04-09T00:53:18.184Z,15.50
2023-04-09T00:57:21.948Z,15.43
2023-04-09T01:01:25.632Z,15.40
2023-04-09T01:05:37.105Z,17.07
2023-04-09T01:09:50.385Z,18.43
2023-04-09T01:14:18.131Z,19.60
2023-04-09T01:18:37.913Z,24.87
2023-04-09T01:22:57.821Z,21.40
2023-04-09T01:27:10.455Z,24.13
2023-04-09T01:36:41.256Z,27.73
2023-04-09T01:40:45.443Z,24.83
2023-04-09T01:44:49.978Z,78.30
2023-04-09T01:49:20.233Z,58.23
2023-04-09T01:53:23.990Z,101.80
2023-04-09T01:57:27.610Z,51.10
2023-04-09T02:06:15.414Z,163.73
2023-04-09T02:10:43.463Z,31.93
2023-04-09T02:14:55.908Z,43.17
2023-04-09T02:19:17.139Z,41.07
2023-04-09T02:23:58.450Z,44.43
2023-04-09T02:28:17.544Z,45.67
2023-04-09T02:32:25.516Z,44.43
2023-04-09T02:36:42.603Z,44.17
2023-04-09T02:41:01.231Z,45.47
2023-04-09T02:45:10.345Z,47.13
2023-04-09T02:49:18.834Z,49.47
2023-04-09T02:53:28.021Z,45.67
2023-04-09T02:57:38.841Z,44.37
2023-04-09T03:01:44.966Z,44.77
2023-04-09T03:05:53.680Z,42.20
2023-04-09T03:10:02.725Z,40.37
2023-04-09T03:14:09.585Z,46.00
2023-04-09T03:18:16.035Z,47.07
2023-04-09T03:22:29.174Z,44.67
2023-04-09T03:26:39.447Z,38.30
2023-04-09T03:30:54.187Z,41.67
2023-04-09T03:35:00.598Z,44.83
2023-04-09T03:39:07.957Z,42.17
2023-04-09T03:43:17.987Z,48.30
2023-04-09T03:47:38.811Z,44.03
2023-04-09T03:51:45.131Z,46.13
2023-04-09T03:55:59.230Z,47.63
2023-04-09T04:00:07.032Z,44.90
2023-04-09T04:04:30.303Z,51.13
2023-04-09T04:08:38.697Z,68.23
2023-04-09T04:12:46.643Z,52.13
2023-04-09T04:16:59.602Z,70.80
2023-04-09T04:21:19.282Z,51.30
2023-04-09T04:25:34.388Z,70.90
2023-04-09T04:29:44.370Z,57.77
2023-04-09T04:34:13.683Z,48.17
2023-04-09T04:38:39.333Z,48.10
2023-04-09T04:42:56.564Z,46.50
2023-04-09T04:47:21.205Z,42.47
2023-04-09T04:52:00.506Z,43.27
2023-04-09T04:56:17.184Z,45.63
2023-04-09T05:00:40.022Z,52.70
2023-04-09T05:04:50.576Z,56.47
2023-04-09T05:09:09.729Z,44.97
2023-04-09T05:14:11.051Z,51.33
2023-04-09T05:18:19.844Z,47.93
2023-04-09T05:27:14.237Z,51.13
2023-04-09T05:31:47.662Z,45.10
2023-04-09T05:40:48.787Z,49.60
2023-04-09T06:05:19.152Z,47.13
2023-04-09T06:52:04.528Z,50.73
2023-04-09T07:02:21.740Z,54.87
2023-04-09T07:06:36.754Z,50.30
2023-04-09T07:10:47.669Z,47.83
2023-04-09T07:14:54.443Z,43.13
2023-04-09T07:19:05.541Z,43.33
2023-04-09T07:23:11.128Z,42.30
2023-04-09T07:27:16.880Z,36.33
2023-04-09T07:31:23.784Z,37.03
2023-04-09T07:35:30.989Z,39.97
2023-04-09T07:39:37.576Z,27.97
2023-04-09T07:43:43.958Z,31.67
2023-04-09T07:47:51.780Z,31.03
2023-04-09T07:51:58.566Z,33.60
2023-04-09T07:56:05.196Z,33.27
2023-04-09T08:00:10.233Z,36.60
2023-04-09T08:04:18.686Z,39.60
2023-04-09T08:08:24.306Z,36.57
2023-04-09T08:12:29.849Z,37.90
2023-04-09T08:16:36.292Z,34.23
2023-04-09T08:20:45.382Z,32.77
2023-04-09T08:24:54.849Z,28.23
2023-04-09T08:28:58.628Z,30.10
2023-04-09T08:33:04.916Z,31.53
2023-04-09T08:37:09.671Z,27.80
2023-04-09T08:41:21.306Z,27.43
2023-04-09T08:45:26.210Z,29.30
2023-04-09T08:49:30.691Z,32.87
2023-04-09T08:53:41.872Z,32.97
2023-04-09T08:57:48.143Z,36.33
2023-04-09T09:01:54.753Z,35.90
2023-04-09T09:05:59.115Z,35.20
2023-04-09T09:10:04.855Z,30.50
2023-04-09T09:14:13.166Z,27.97
2023-04-09T09:18:17.005Z,28.50
2023-04-09T09:22:23.602Z,26.37
2023-04-09T09:26:30.409Z,30.40
2023-04-09T09:30:36.719Z,29.40
2023-04-09T09:34:41.302Z,28.43
2023-04-09T09:38:56.745Z,28.57
2023-04-09T09:43:02.521Z,32.03
2023-04-09T09:47:08.939Z,28.37
2023-04-09T09:51:15.163Z,28.97
2023-04-09T09:55:22.224Z,27.70
2023-04-09T09:59:34.249Z,25.33
2023-04-09T10:03:43.528Z,23.90
2023-04-09T10:07:49.707Z,25.23
2023-04-09T10:11:54.677Z,25.20
2023-04-09T10:15:59.171Z,25.77
2023-04-09T10:20:16.594Z,23.57
2023-04-09T10:24:21.584Z,23.70
2023-04-09T10:28:25.050Z,17.10
2023-04-09T10:32:29.459Z,19.83
2023-04-09T10:36:39.918Z,17.13
2023-04-09T10:40:51.546Z,20.37
2023-04-09T10:45:12.623Z,18.97
2023-04-09T10:49:19.681Z,18.53
2023-04-09T10:53:31.731Z,17.00
2023-04-09T10:57:36.655Z,17.30
2023-04-09T11:01:41.943Z,21.77
2023-04-09T11:05:53.456Z,22.30
2023-04-09T11:10:00.862Z,22.00
2023-04-09T11:14:09.323Z,25.33
2023-04-09T11:18:16.860Z,24.43
2023-04-09T11:22:21.416Z,20.97
2023-04-09T11:26:37.705Z,23.03
2023-04-09T11:30:47.106Z,28.10
2023-04-09T11:34:57.603Z,19.80
2023-04-09T11:39:04.461Z,19.43
2023-04-09T11:43:10.363Z,17.27
2023-04-09T11:47:15.082Z,16.50
2023-04-09T11:51:31.246Z,18.13
2023-04-09T11:55:36.093Z,15.93
2023-04-09T11:59:42.333Z,16.87
2023-04-09T12:03:47.291Z,18.53
2023-04-09T12:07:56.541Z,18.77
2023-04-09T12:12:02.353Z,16.20
2023-04-09T12:16:11.029Z,17.93
2023-04-09T12:20:17.407Z,19.70
2023-04-09T12:24:23.420Z,18.60
2023-04-09T12:28:27.350Z,18.67
2023-04-09T12:32:35.564Z,17.70
2023-04-09T12:36:41.976Z,17.67
2023-04-09T12:40:45.897Z,15.90
2023-04-09T12:44:49.387Z,21.10
2023-04-09T12:48:56.789Z,18.47
2023-04-09T12:53:00.026Z,21.20
2023-04-09T12:57:03.797Z,19.87
2023-04-09T13:01:07.649Z,19.73
2023-04-09T13:05:13.902Z,19.77
2023-04-09T13:09:18.077Z,20.40
2023-04-09T13:13:22.920Z,17.33
2023-04-09T13:17:26.670Z,17.97
2023-04-09T13:21:32.459Z,17.07
2023-04-09T13:25:36.137Z,17.53
2023-04-09T13:29:39.864Z,16.50
2023-04-09T13:33:43.593Z,18.33
2023-04-09T13:37:48.588Z,17.67
2023-04-09T13:41:52.129Z,18.53
2023-04-09T13:45:56.226Z,20.10
2023-04-09T13:49:59.776Z,20.00
2023-04-09T13:54:06.078Z,20.53
2023-04-09T13:58:10.976Z,18.17
2023-04-09T14:02:15.605Z,20.03
2023-04-09T14:06:22.179Z,16.40
2023-04-09T14:10:27.895Z,17.70
2023-04-09T14:14:33.696Z,22.80
2023-04-09T14:18:40.230Z,22.23
2023-04-09T14:22:50.108Z,20.13
2023-04-09T14:26:57.947Z,23.27
2023-04-09T14:31:02.416Z,23.17
2023-04-09T14:35:06.809Z,24.27
2023-04-09T14:39:16.216Z,23.50
2023-04-09T14:43:23.776Z,23.80
2023-04-09T14:47:27.915Z,24.23
2023-04-09T14:51:31.771Z,25.00
2023-04-09T14:55:36.642Z,22.40
2023-04-09T14:59:42.019Z,21.23
2023-04-09T15:03:47.234Z,22.27
2023-04-09T15:07:51.485Z,21.83
2023-04-09T15:11:56.489Z,23.00
2023-04-09T15:16:01.913Z,22.23
2023-04-09T15:20:06.293Z,19.90
2023-04-09T15:24:11.341Z,18.97
2023-04-09T15:28:16.148Z,18.53
2023-04-09T15:32:22.199Z,17.43
2023-04-09T15:36:29.180Z,18.73
2023-04-09T15:40:33.566Z,18.40
2023-04-09T15:44:41.449Z,18.87
2023-04-09T15:48:47.245Z,18.23
2023-04-09T15:52:51.319Z,20.67
2023-04-09T15:56:55.029Z,18.33
2023-04-09T16:00:59.496Z,20.47
2023-04-09T16:05:04.638Z,16.37
2023-04-09T16:09:08.978Z,20.23
2023-04-09T16:13:13.386Z,25.13
2023-04-09T16:17:17.245Z,20.93
2023-04-09T16:21:25.430Z,20.50
2023-04-09T16:25:31.747Z,20.60
2023-04-09T16:29:37.296Z,18.37
2023-04-09T16:33:42.145Z,20.97
2023-04-09T16:37:52.178Z,21.77
2023-04-09T16:41:56.038Z,18.73
2023-04-09T16:46:03.678Z,18.53
2023-04-09T16:50:12.142Z,20.60
2023-04-09T16:54:18.759Z,22.40
2023-04-09T16:58:22.355Z,26.70
2023-04-09T17:02:28.066Z,23.80
2023-04-09T17:06:34.104Z,21.90
2023-04-09T17:10:41.923Z,25.20
2023-04-09T17:14:46.378Z,22.90
2023-04-09T17:18:52.066Z,25.00
2023-04-09T17:22:57.427Z,22.57
2023-04-09T17:27:09.259Z,27.03
2023-04-09T17:31:17.302Z,23.87
2023-04-09T17:35:22.485Z,23.33
2023-04-09T17:39:30.500Z,21.73
2023-04-09T17:43:39.278Z,21.53
2023-04-09T17:47:44.114Z,20.97
2023-04-09T17:51:49.108Z,20.53
2023-04-09T17:55:55.474Z,19.20
2023-04-09T18:00:08.810Z,22.33
2023-04-09T18:04:23.856Z,19.03
2023-04-09T18:08:30.127Z,17.77
2023-04-09T18:12:36.790Z,15.67
2023-04-09T18:16:44.621Z,16.63
2023-04-09T18:20:55.238Z,18.33
2023-04-09T18:25:04.199Z,17.27
2023-04-09T18:29:08.837Z,17.03
2023-04-09T18:33:18.364Z,19.07
2023-04-09T18:37:23.729Z,16.63
2023-04-09T18:41:33.972Z,18.70
2023-04-09T18:45:43.438Z,14.70
2023-04-09T18:49:50.009Z,16.80
2023-04-09T18:54:03.703Z,20.87
2023-04-09T18:58:13.484Z,18.03
2023-04-09T19:02:19.854Z,18.93
2023-04-09T19:06:33.427Z,17.97
2023-04-09T19:10:37.947Z,17.87
2023-04-09T19:14:44.184Z,19.50
2023-04-09T19:18:50.417Z,16.40
2023-04-09T19:22:58.805Z,17.63
2023-04-09T19:27:10.368Z,18.27
2023-04-09T19:31:18.783Z,15.93
2023-04-09T19:35:41.330Z,16.00
2023-04-09T19:39:48.582Z,15.07
2023-04-09T19:43:54.460Z,16.60
2023-04-09T19:48:00.312Z,15.13
2023-04-09T19:52:18.372Z,15.13
2023-04-09T19:56:26.359Z,13.03
2023-04-09T20:00:34.758Z,14.30
2023-04-09T20:04:41.002Z,14.37
2023-04-09T20:08:45.883Z,12.90
2023-04-09T20:12:55.133Z,14.20
2023-04-09T20:17:05.010Z,16.40
2023-04-09T20:21:15.867Z,14.47
2023-04-09T20:25:21.963Z,14.20
2023-04-09T20:29:32.064Z,12.63
2023-04-09T20:33:40.511Z,12.97
2023-04-09T20:37:50.330Z,14.10
2023-04-09T20:42:05.666Z,13.97
2023-04-09T20:46:15.129Z,13.13
2023-04-09T20:50:23.550Z,14.00
2023-04-09T20:54:33.987Z,13.13
2023-04-09T20:58:49.011Z,13.43
2023-04-09T21:03:23.558Z,13.90
2023-04-09T21:07:34.704Z,12.80
2023-04-09T21:11:45.101Z,12.43
2023-04-09T21:15:55.294Z,13.53
2023-04-09T21:20:05.864Z,11.20
2023-04-09T21:24:16.489Z,12.33
2023-04-09T21:28:49.388Z,14.27
2023-04-09T21:33:02.410Z,12.63
2023-04-09T21:37:12.376Z,14.37
2023-04-09T21:42:03.020Z,12.07
2023-04-09T21:46:22.224Z,12.63
2023-04-09T21:50:33.632Z,10.47
2023-04-09T21:55:01.346Z,11.57
2023-04-09T21:59:16.564Z,12.63
2023-04-09T22:03:44.819Z,10.33
2023-04-09T22:07:53.836Z,13.23
2023-04-09T22:12:20.797Z,12.20
2023-04-09T22:16:29.598Z,12.50
2023-04-09T22:25:04.755Z,11.93
2023-04-09T22:29:16.325Z,12.90
2023-04-09T22:33:37.810Z,12.70
2023-04-09T22:37:48.985Z,11.17
2023-04-09T22:46:47.068Z,17.67
2023-04-09T22:51:10.663Z,14.67
2023-04-09T22:55:44.130Z,15.27
2023-04-09T23:00:13.617Z,14.17
2023-04-09T23:04:47.184Z,14.63
2023-04-09T23:13:34.421Z,17.00
2023-04-09T23:17:46.823Z,13.53
2023-04-09T23:22:09.139Z,14.37
2023-04-09T23:26:15.052Z,13.87
2023-04-09T23:30:34.859Z,17.00
2023-04-09T23:34:42.204Z,16.40
2023-04-09T23:39:01.084Z,13.70
2023-04-09T23:43:34.828Z,14.87
2023-04-09T23:57:38.945Z,15.77
